Pesqueira, Brazil
Current Conditions -  °F | °C
As of 6:00 PM on Friday 24 Oct 2014 (Local Time) from SBKG Reporting Station
Few Clouds Few Clouds  
Wind Chill: 73°   Ceiling: Unl
Heat Index: 73°   Visibility: 6mi
Dew Point: 63°   Wind: 10mph
Humidity: 69%   Direction: 110°ESE
Pressure: 29.97"   Gusts: NA
Location:  8.36°S, 36.7°W
Report Text: SBKG 242100Z 11009KT 9999 FEW025 23/17 Q1015
Loading
Personal Weather Stations






























Interactive Weather Map
Tropical Storm Tracking
New forecast layout! Learn more

10-Day Weather Forecast

Advertisements
Track Severe Weather on mobile